TimeEST,TemperatureF,Dew PointF,Humidity,Sea Level PressureIn,VisibilityMPH,Wind Direction,Wind SpeedMPH,Gust SpeedMPH,PrecipitationIn,Events,Conditions,WindDirDegrees,DateUTC
12:16 AM,33.8,32.0,93,29.97,6.0,Calm,Calm,-,0.00,,Overcast,0,2013-02-16 05:16:00
12:53 AM,34.0,32.0,92,29.98,4.0,Calm,Calm,-,0.00,,Overcast,0,2013-02-16 05:53:00
1:31 AM,33.8,32.0,93,29.96,2.0,Calm,Calm,-,0.00,,Overcast,0,2013-02-16 06:31:00
1:53 AM,34.0,32.0,92,29.95,2.5,Calm,Calm,-,0.00,,Overcast,0,2013-02-16 06:53:00
2:04 AM,33.8,32.0,93,29.94,4.0,Calm,Calm,-,N/A,,Overcast,0,2013-02-16 07:04:00
2:39 AM,33.8,32.0,93,29.95,5.0,Calm,Calm,-,0.00,,Overcast,0,2013-02-16 07:39:00
2:53 AM,34.0,32.0,92,29.96,4.0,Calm,Calm,-,0.00,Snow,Light Snow,0,2013-02-16 07:53:00
3:01 AM,33.8,32.0,93,29.94,2.5,Calm,Calm,-,0.01,Snow,Light Snow,0,2013-02-16 08:01:00
3:12 AM,33.8,30.2,87,29.94,1.2,NNW,3.5,-,0.02,Snow,Light Snow,330,2013-02-16 08:12:00
3:15 AM,33.8,30.2,87,29.94,1.5,NNW,3.5,-,0.02,Snow,Light Snow,340,2013-02-16 08:15:00
3:29 AM,33.8,30.2,87,29.93,1.5,NNE,3.5,-,0.03,Snow,Light Snow,30,2013-02-16 08:29:00
3:37 AM,33.8,30.2,87,29.93,3.0,NNE,9.2,-,0.03,Snow,Light Snow,30,2013-02-16 08:37:00
3:53 AM,34.0,30.0,85,29.94,9.0,ENE,4.6,-,0.03,,Overcast,60,2013-02-16 08:53:00
4:53 AM,33.1,30.0,89,29.95,10.0,Calm,Calm,-,N/A,,Scattered Clouds,0,2013-02-16 09:53:00
5:53 AM,32.0,24.1,73,29.96,10.0,NNW,4.6,-,N/A,,Clear,340,2013-02-16 10:53:00
6:53 AM,30.9,23.0,72,29.96,10.0,NNW,8.1,-,N/A,,Mostly Cloudy,330,2013-02-16 11:53:00
7:53 AM,30.0,21.9,72,29.97,10.0,NNW,5.8,-,N/A,,Clear,330,2013-02-16 12:53:00
8:53 AM,30.9,19.9,64,29.97,10.0,NNW,8.1,-,N/A,,Clear,340,2013-02-16 13:53:00
9:53 AM,30.9,21.0,67,29.96,10.0,NNE,8.1,-,N/A,,Mostly Cloudy,20,2013-02-16 14:53:00
10:53 AM,32.0,19.9,61,29.95,10.0,Variable,6.9,-,N/A,,Scattered Clouds,0,2013-02-16 15:53:00
11:53 AM,34.0,21.0,59,29.93,10.0,NNE,6.9,-,N/A,,Clear,20,2013-02-16 16:53:00
12:53 PM,34.0,19.0,54,29.91,10.0,WNW,6.9,-,N/A,,Partly Cloudy,290,2013-02-16 17:53:00
1:53 PM,35.1,19.0,52,29.88,10.0,North,10.4,-,N/A,,Partly Cloudy,10,2013-02-16 18:53:00
2:53 PM,34.0,16.0,48,29.86,10.0,Variable,3.5,-,N/A,,Scattered Clouds,0,2013-02-16 19:53:00
3:53 PM,33.1,14.0,46,29.88,10.0,Variable,6.9,-,N/A,,Overcast,0,2013-02-16 20:53:00
4:53 PM,33.1,15.1,48,29.86,10.0,NNW,6.9,-,N/A,,Overcast,340,2013-02-16 21:53:00
5:53 PM,32.0,14.0,48,29.86,10.0,North,4.6,-,N/A,,Overcast,350,2013-02-16 22:53:00
6:53 PM,32.0,12.9,45,29.86,10.0,North,8.1,-,N/A,,Overcast,350,2013-02-16 23:53:00
7:53 PM,30.9,14.0,50,29.85,10.0,North,8.1,-,N/A,,Overcast,360,2013-02-17 00:53:00
8:53 PM,28.9,12.0,49,29.84,10.0,North,9.2,20.7,N/A,,Overcast,350,2013-02-17 01:53:00
9:53 PM,28.0,9.0,45,29.83,10.0,North,5.8,-,N/A,,Overcast,350,2013-02-17 02:53:00
10:53 PM,28.0,9.0,45,29.79,10.0,North,10.4,17.3,N/A,,Overcast,360,2013-02-17 03:53:00
11:53 PM,27.0,8.1,45,29.78,10.0,North,9.2,-,N/A,,Overcast,350,2013-02-17 04:53:00